Time;durP1;ratioP1;P1;durP2;ratioP2;P2;SDS_P1;SDS_P2;PMS_P1;PMS_P2;Temp;Humidity;BMP_temperature;BMP_pressure;BME280_temperature;BME280_humidity;BME280_pressure;Samples;Min_cycle;Max_cycle;Signal;HPM_P1;HPM_P2
2022/05/07 00:01:36;;;;;;;1.35;0.20;;;14.90;99.90;;;;;;5080868;28;20205;-77
2022/05/07 00:04:09;;;;;;;2.63;0.50;;;14.90;99.90;;;;;;5088273;28;20196;-76
2022/05/07 00:06:40;;;;;;;1.40;0.40;;;14.90;99.90;;;;;;5085590;28;20277;-77
2022/05/07 00:09:12;;;;;;;0.75;0.38;;;14.90;99.90;;;;;;5068749;28;20818;-76
2022/05/07 00:11:43;;;;;;;1.73;0.50;;;15.00;99.90;;;;;;5087526;28;20193;-76
2022/05/07 00:14:14;;;;;;;3.28;0.50;;;15.00;99.90;;;;;;5077934;28;20598;-77
2022/05/07 00:19:34;;;;;;;3.13;0.43;;;15.20;99.90;;;;;;5074786;28;20670;-77
2022/05/07 00:22:05;;;;;;;1.65;0.50;;;15.20;99.90;;;;;;5079601;28;20195;-77
2022/05/07 00:24:36;;;;;;;0.88;0.40;;;15.20;99.90;;;;;;5073357;28;20227;-78
2022/05/07 00:27:07;;;;;;;1.80;0.43;;;15.20;99.90;;;;;;5077788;28;20195;-75
2022/05/07 00:29:38;;;;;;;1.52;0.40;;;15.10;99.90;;;;;;5083614;28;20212;-76
2022/05/07 00:32:10;;;;;;;2.17;0.45;;;15.20;99.90;;;;;;5081081;28;20204;-77
2022/05/07 00:34:43;;;;;;;1.10;0.40;;;15.30;99.90;;;;;;5082745;28;20197;-75
2022/05/07 00:37:13;;;;;;;0.68;0.40;;;15.40;99.90;;;;;;5082281;28;20690;-77
2022/05/07 00:39:44;;;;;;;0.93;0.40;;;15.40;99.90;;;;;;5086155;28;20203;-75
2022/05/07 00:42:15;;;;;;;0.82;0.45;;;15.40;99.90;;;;;;5088871;28;20569;-77
2022/05/07 00:44:46;;;;;;;0.85;0.30;;;15.40;99.90;;;;;;5077663;28;20224;-77
2022/05/07 00:47:23;;;;;;;0.98;0.35;;;15.40;99.90;;;;;;5084737;28;20196;-76
2022/05/07 00:51:33;;;;;;;1.00;0.40;;;15.30;99.90;;;;;;5080455;28;20310;-77
2022/05/07 00:52:48;;;;;;;0.73;0.25;;;15.40;99.90;;;;;;5076770;28;20197;-76
2022/05/07 00:55:19;;;;;;;3.10;0.30;;;15.30;99.90;;;;;;5082242;28;20580;-77
2022/05/07 00:57:50;;;;;;;3.03;0.40;;;15.40;99.90;;;;;;5078924;28;20262;-76
2022/05/07 01:00:21;;;;;;;0.82;0.40;;;15.40;99.90;;;;;;5087354;28;20238;-76
2022/05/07 01:02:52;;;;;;;2.72;0.45;;;15.40;99.90;;;;;;5089189;28;20197;-77
2022/05/07 01:05:25;;;;;;;2.08;0.45;;;15.60;99.90;;;;;;5086398;28;20200;-76
2022/05/07 01:07:56;;;;;;;0.85;0.40;;;15.70;99.90;;;;;;5083312;28;20200;-77
2022/05/07 01:10:27;;;;;;;1.38;0.47;;;15.90;99.90;;;;;;5081659;28;20230;-76
2022/05/07 01:12:58;;;;;;;1.30;0.50;;;15.90;99.90;;;;;;5090306;28;20245;-76
2022/05/07 01:15:29;;;;;;;1.08;0.50;;;16.00;99.90;;;;;;5081913;28;20655;-76
2022/05/07 01:17:59;;;;;;;2.10;0.60;;;16.10;99.90;;;;;;5081327;28;20193;-79
2022/05/07 01:20:32;;;;;;;2.65;0.50;;;16.10;99.90;;;;;;5087086;28;20208;-78
2022/05/07 01:23:04;;;;;;;10.43;6.55;;;16.20;99.90;;;;;;5090385;28;20200;-78
2022/05/07 01:25:35;;;;;;;6.20;3.97;;;16.20;99.90;;;;;;5083310;28;20197;-76
2022/05/07 01:28:06;;;;;;;7.70;4.45;;;16.20;99.90;;;;;;5080244;28;20243;-75
2022/05/07 01:30:38;;;;;;;1.98;1.20;;;16.20;99.90;;;;;;5090780;28;20208;-76
2022/05/07 01:33:08;;;;;;;2.28;1.20;;;16.20;99.90;;;;;;5087996;28;20188;-76
2022/05/07 01:35:39;;;;;;;3.40;1.17;;;16.20;99.90;;;;;;5086489;28;20192;-77
2022/05/07 01:38:11;;;;;;;2.38;0.68;;;16.40;99.90;;;;;;5082960;28;20193;-76
2022/05/07 01:40:42;;;;;;;1.55;0.60;;;16.60;99.90;;;;;;5085434;28;20196;-76
2022/05/07 01:43:13;;;;;;;0.50;0.50;;;16.70;99.90;;;;;;5081624;28;20246;-76
2022/05/07 01:45:43;;;;;;;2.08;0.50;;;16.80;99.90;;;;;;5081646;28;20197;-77
2022/05/07 01:48:13;;;;;;;17.20;11.55;;;17.00;99.90;;;;;;5075394;28;20442;-77
2022/05/07 01:50:45;;;;;;;5.82;3.50;;;17.00;99.90;;;;;;5080179;28;20239;-77
2022/05/07 01:53:18;;;;;;;2.60;1.55;;;16.90;99.90;;;;;;5082761;28;20314;-76
2022/05/07 01:55:49;;;;;;;3.88;1.40;;;17.00;99.90;;;;;;5078263;28;20228;-76
2022/05/07 01:58:19;;;;;;;1.55;0.85;;;17.00;99.90;;;;;;5082324;28;20706;-78
2022/05/07 02:00:50;;;;;;;1.85;0.70;;;17.00;99.90;;;;;;5080758;28;20204;-77
2022/05/07 02:03:21;;;;;;;3.58;0.70;;;17.10;99.90;;;;;;5088446;28;20247;-76
2022/05/07 02:05:51;;;;;;;3.40;0.60;;;17.20;99.90;;;;;;5088235;28;20204;-77
2022/05/07 02:08:24;;;;;;;0.60;0.45;;;17.30;99.90;;;;;;5091140;28;20611;-75
2022/05/07 02:10:54;;;;;;;0.68;0.57;;;17.30;99.90;;;;;;5091374;28;20744;-77
2022/05/07 02:13:25;;;;;;;1.88;0.55;;;17.40;99.90;;;;;;5086168;28;20204;-77
2022/05/07 02:15:55;;;;;;;1.55;0.35;;;17.50;99.90;;;;;;5076673;28;20201;-75
2022/05/07 02:18:26;;;;;;;0.57;0.40;;;17.50;99.90;;;;;;5077693;28;20241;-76
2022/05/07 02:20:57;;;;;;;1.95;0.50;;;17.60;99.90;;;;;;5076983;28;20204;-76
2022/05/07 02:23:29;;;;;;;0.80;0.50;;;17.60;99.90;;;;;;5080385;28;20606;-77
2022/05/07 02:26:00;;;;;;;1.15;0.40;;;17.70;99.90;;;;;;5087801;28;20196;-76
2022/05/07 02:28:31;;;;;;;1.67;0.45;;;17.80;99.90;;;;;;5083535;28;20212;-76
2022/05/07 02:31:01;;;;;;;1.23;0.90;;;17.70;99.90;;;;;;5085911;28;20223;-76
2022/05/07 02:33:32;;;;;;;2.35;0.55;;;17.70;99.90;;;;;;5082628;28;20193;-77
2022/05/07 02:36:03;;;;;;;1.92;0.40;;;17.70;99.90;;;;;;5074891;28;20200;-78
2022/05/07 02:38:38;;;;;;;2.00;0.50;;;17.80;99.90;;;;;;5082347;28;20249;-76
2022/05/07 02:43:56;;;;;;;1.02;0.50;;;17.70;99.90;;;;;;5082718;28;20212;-77
2022/05/07 02:46:26;;;;;;;0.60;0.40;;;17.80;99.90;;;;;;5085087;28;20207;-77
2022/05/07 02:48:57;;;;;;;2.45;0.45;;;17.80;99.90;;;;;;5077497;28;20217;-76
2022/05/07 02:51:28;;;;;;;1.63;0.50;;;17.90;99.90;;;;;;5079849;28;20651;-76
2022/05/07 02:54:00;;;;;;;1.95;0.47;;;18.00;99.90;;;;;;5091035;28;20249;-77
2022/05/07 02:56:31;;;;;;;0.60;0.40;;;18.00;99.90;;;;;;5072905;28;20197;-79
2022/05/07 02:59:02;;;;;;;1.45;0.40;;;18.20;99.90;;;;;;5072439;28;20616;-78
2022/05/07 03:01:33;;;;;;;0.82;0.40;;;18.20;99.90;;;;;;5064196;28;20196;-76
2022/05/07 03:04:03;;;;;;;0.50;0.30;;;18.20;99.90;;;;;;5061254;28;20201;-76
2022/05/07 03:06:34;;;;;;;1.33;0.40;;;18.20;99.90;;;;;;5074664;28;20201;-77
2022/05/07 03:09:07;;;;;;;1.75;0.40;;;18.20;99.90;;;;;;5085093;28;20196;-75
2022/05/07 03:11:38;;;;;;;1.65;0.38;;;18.30;99.90;;;;;;5077139;28;20298;-74
2022/05/07 03:14:08;;;;;;;1.08;0.30;;;18.30;99.90;;;;;;5074345;28;20609;-75
2022/05/07 03:16:40;;;;;;;1.17;0.40;;;18.20;99.90;;;;;;5081146;28;20201;-75
2022/05/07 03:19:10;;;;;;;1.00;0.50;;;18.10;99.90;;;;;;5083324;28;20287;-75
2022/05/07 03:21:42;;;;;;;2.53;0.50;;;18.00;99.90;;;;;;5079761;28;20193;-75
2022/05/07 03:24:15;;;;;;;0.75;0.40;;;18.00;99.90;;;;;;5077558;28;20192;-75
2022/05/07 03:26:45;;;;;;;3.33;0.90;;;18.10;99.90;;;;;;5092162;28;20656;-77
2022/05/07 03:29:16;;;;;;;4.20;1.17;;;18.10;99.90;;;;;;5084296;28;20197;-76
2022/05/07 03:31:49;;;;;;;1.48;0.52;;;18.10;99.90;;;;;;5084990;28;20201;-75
2022/05/07 03:34:23;;;;;;;2.95;0.82;;;18.10;99.90;;;;;;5073177;28;20208;-74
2022/05/07 03:36:54;;;;;;;3.00;0.63;;;18.20;99.90;;;;;;5076103;28;20266;-74
2022/05/07 03:39:26;;;;;;;2.95;0.40;;;18.20;99.90;;;;;;5073756;28;20209;-75
2022/05/07 03:41:57;;;;;;;0.30;0.30;;;18.30;99.90;;;;;;5075176;28;20204;-75
2022/05/07 03:44:28;;;;;;;2.45;0.30;;;18.30;99.90;;;;;;5092283;28;20188;-74
2022/05/07 03:46:58;;;;;;;1.15;0.40;;;18.20;99.90;;;;;;5079580;28;20273;-75
2022/05/07 03:49:29;;;;;;;1.02;0.35;;;18.30;99.90;;;;;;5078744;28;20209;-75
2022/05/07 03:54:48;;;;;;;0.47;0.28;;;18.50;99.90;;;;;;5077869;28;20230;-77
2022/05/07 03:57:19;;;;;;;2.33;0.60;;;18.50;99.90;;;;;;5071900;28;20241;-77
2022/05/07 03:59:50;;;;;;;1.50;0.30;;;18.60;99.90;;;;;;5088697;28;20236;-76
2022/05/07 04:02:20;;;;;;;1.00;0.40;;;18.60;99.90;;;;;;5090013;28;20192;-77
2022/05/07 04:04:51;;;;;;;0.55;0.40;;;18.60;99.90;;;;;;5086862;28;20268;-77
2022/05/07 04:07:22;;;;;;;1.30;0.50;;;18.70;99.90;;;;;;5077471;28;20204;-76
2022/05/07 04:09:55;;;;;;;0.30;0.30;;;18.70;99.90;;;;;;5076458;28;20212;-76
2022/05/07 04:12:25;;;;;;;1.00;0.30;;;18.70;99.90;;;;;;5080203;28;20205;-77
2022/05/07 04:15:00;;;;;;;0.70;0.40;;;18.70;99.90;;;;;;5073600;28;20258;-77
2022/05/07 04:17:31;;;;;;;2.08;0.90;;;18.70;99.90;;;;;;5073191;28;20694;-76
2022/05/07 04:20:01;;;;;;;4.25;0.35;;;18.90;99.90;;;;;;5073440;28;20238;-78
2022/05/07 04:22:35;;;;;;;0.30;0.30;;;18.90;99.90;;;;;;5084940;28;20724;-76
2022/05/07 04:25:10;;;;;;;0.65;0.30;;;19.00;99.90;;;;;;5092888;28;20224;-76
2022/05/07 04:27:41;;;;;;;0.75;0.38;;;19.10;99.90;;;;;;5083628;28;20253;-74
2022/05/07 04:30:12;;;;;;;0.45;0.40;;;19.00;99.90;;;;;;5093360;28;20219;-75
2022/05/07 04:32:43;;;;;;;0.32;0.30;;;19.10;99.90;;;;;;5092374;28;20192;-74
2022/05/07 04:35:14;;;;;;;14.55;10.60;;;19.10;99.90;;;;;;5093726;28;20188;-74
2022/05/07 04:37:45;;;;;;;8.38;6.72;;;19.20;99.90;;;;;;5089715;28;20234;-74
2022/05/07 04:40:18;;;;;;;9.25;5.50;;;19.10;99.90;;;;;;5073365;28;20266;-74
2022/05/07 04:42:48;;;;;;;7.15;3.28;;;19.00;99.90;;;;;;5073143;28;20269;-74
2022/05/07 04:45:19;;;;;;;2.92;1.90;;;18.90;99.90;;;;;;5073048;28;20189;-74
2022/05/07 04:47:49;;;;;;;1.52;1.15;;;18.70;99.90;;;;;;5073201;28;20189;-75
2022/05/07 04:50:20;;;;;;;3.10;0.90;;;18.70;99.90;;;;;;5076158;28;20694;-74
2022/05/07 04:52:51;;;;;;;1.48;0.80;;;18.80;99.90;;;;;;5091883;28;20214;-74
2022/05/07 04:55:25;;;;;;;0.52;0.38;;;18.90;99.90;;;;;;5089284;28;20196;-74
2022/05/07 04:57:55;;;;;;;0.93;0.40;;;19.00;99.90;;;;;;5093084;28;20309;-81
2022/05/07 05:00:26;;;;;;;0.70;0.30;;;19.00;99.90;;;;;;5093020;28;20193;-74
2022/05/07 05:02:57;;;;;;;0.85;0.30;;;19.20;99.90;;;;;;5093333;28;20530;-75
2022/05/07 05:05:29;;;;;;;3.00;0.30;;;19.20;99.90;;;;;;5093200;28;20658;-75
2022/05/07 05:07:59;;;;;;;0.47;0.20;;;19.20;99.90;;;;;;5093592;28;20192;-77
2022/05/07 05:10:32;;;;;;;0.32;0.30;;;19.10;99.90;;;;;;5091247;28;20229;-77
2022/05/07 05:13:02;;;;;;;0.77;0.30;;;19.10;99.90;;;;;;5092952;28;20241;-76
2022/05/07 05:15:33;;;;;;;0.30;0.20;;;19.00;99.90;;;;;;5085385;28;20215;-76
2022/05/07 05:18:04;;;;;;;0.40;0.22;;;19.00;99.90;;;;;;5072829;28;20279;-75
2022/05/07 05:20:34;;;;;;;2.05;0.38;;;18.90;99.90;;;;;;5072368;28;20258;-76
2022/05/07 05:23:06;;;;;;;1.45;0.35;;;18.90;99.90;;;;;;5072882;28;20250;-76
2022/05/07 05:25:42;;;;;;;1.63;0.35;;;18.90;99.90;;;;;;5073295;28;20193;-75
2022/05/07 05:28:13;;;;;;;0.77;0.32;;;18.90;99.90;;;;;;5073529;28;20280;-75
2022/05/07 05:30:44;;;;;;;0.32;0.30;;;18.80;99.90;;;;;;5092666;28;20226;-75
2022/05/07 05:33:14;;;;;;;0.47;0.20;;;18.90;99.90;;;;;;5092756;28;20253;-76
2022/05/07 05:35:45;;;;;;;1.02;0.30;;;18.90;99.90;;;;;;5092891;28;20241;-76
2022/05/07 05:38:16;;;;;;;1.98;0.40;;;18.90;99.90;;;;;;5078480;28;20197;-76
2022/05/07 05:40:49;;;;;;;0.65;0.10;;;19.00;99.90;;;;;;5072624;28;20280;-75
2022/05/07 05:43:20;;;;;;;0.73;0.20;;;19.00;99.90;;;;;;5074420;28;20197;-77
2022/05/07 05:45:50;;;;;;;0.22;0.20;;;19.00;99.90;;;;;;5076281;28;20637;-76
2022/05/07 05:48:21;;;;;;;1.08;0.20;;;19.00;99.90;;;;;;5076209;28;20695;-75
2022/05/07 05:50:52;;;;;;;1.65;0.13;;;19.00;99.90;;;;;;5076145;28;20274;-76
2022/05/07 05:53:22;;;;;;;0.10;0.10;;;19.00;99.90;;;;;;5077611;28;20216;-74
2022/05/07 05:55:55;;;;;;;1.17;0.20;;;18.90;99.90;;;;;;5084428;28;20250;-75
2022/05/07 05:58:27;;;;;;;0.45;0.25;;;18.80;99.90;;;;;;5084802;28;20296;-77
2022/05/07 06:00:58;;;;;;;0.50;0.20;;;18.80;99.90;;;;;;5096418;28;20199;-76
2022/05/07 06:03:29;;;;;;;0.80;0.30;;;18.80;99.90;;;;;;5077297;28;20189;-81
2022/05/07 06:05:59;;;;;;;0.40;0.40;;;18.70;99.90;;;;;;5075981;28;20189;-76
2022/05/07 06:08:30;;;;;;;0.80;0.30;;;18.80;99.90;;;;;;5077076;28;20553;-77
2022/05/07 06:11:03;;;;;;;0.40;0.30;;;18.70;99.90;;;;;;5075644;28;20224;-76
2022/05/07 06:13:35;;;;;;;1.75;0.35;;;18.70;99.90;;;;;;5075328;28;20189;-75
2022/05/07 06:16:05;;;;;;;0.60;0.30;;;18.70;99.90;;;;;;5075738;28;20193;-77
2022/05/07 06:18:36;;;;;;;1.65;0.40;;;18.60;99.90;;;;;;5088972;28;20184;-76
2022/05/07 06:21:06;;;;;;;0.85;0.30;;;18.60;99.90;;;;;;5095811;28;20196;-75
2022/05/07 06:23:37;;;;;;;1.23;0.60;;;18.60;99.90;;;;;;5095864;28;20193;-75
2022/05/07 06:28:56;;;;;;;0.80;0.50;;;18.50;99.90;;;;;;5075389;28;20235;-75
2022/05/07 06:31:27;;;;;;;0.93;0.28;;;18.30;99.90;;;;;;5075313;28;20217;-75
2022/05/07 06:33:58;;;;;;;0.63;0.30;;;18.30;99.90;;;;;;5079332;28;20197;-75
2022/05/07 06:36:29;;;;;;;1.15;0.55;;;18.10;99.90;;;;;;5075359;28;20192;-75
2022/05/07 06:38:59;;;;;;;1.13;0.50;;;18.00;99.90;;;;;;5079188;28;20275;-75
2022/05/07 06:41:32;;;;;;;0.82;0.30;;;17.90;99.90;;;;;;5082681;28;20254;-75
2022/05/07 06:44:03;;;;;;;0.30;0.30;;;17.80;99.90;;;;;;5075138;28;20189;-76
2022/05/07 06:46:33;;;;;;;1.45;0.40;;;17.70;99.90;;;;;;5092904;28;20192;-74
2022/05/07 06:49:04;;;;;;;1.48;0.40;;;17.60;99.90;;;;;;5082772;28;20196;-75
2022/05/07 06:51:35;;;;;;;1.40;0.38;;;17.50;99.90;;;;;;5080596;28;20208;-76
2022/05/07 06:54:05;;;;;;;0.93;0.43;;;17.40;99.90;;;;;;5081675;28;20274;-76
2022/05/07 06:56:38;;;;;;;1.77;0.50;;;17.40;99.90;;;;;;5074624;28;20246;-76
2022/05/07 06:59:10;;;;;;;0.80;0.57;;;17.30;99.90;;;;;;5074723;28;20236;-76
2022/05/07 07:01:41;;;;;;;0.80;0.50;;;17.20;99.90;;;;;;5078716;28;20192;-76
2022/05/07 07:04:11;;;;;;;1.17;0.75;;;17.20;99.90;;;;;;5088321;28;20193;-76
2022/05/07 07:06:42;;;;;;;10.00;5.75;;;17.00;99.90;;;;;;5075107;28;20553;-76
2022/05/07 07:09:13;;;;;;;11.90;6.45;;;17.00;99.90;;;;;;5078096;28;20200;-76
2022/05/07 07:11:45;;;;;;;11.52;5.90;;;17.00;99.90;;;;;;5083114;28;20262;-75
2022/05/07 07:14:16;;;;;;;4.63;2.33;;;16.90;99.90;;;;;;5075753;28;20193;-76
2022/05/07 07:16:46;;;;;;;3.60;1.83;;;16.80;99.90;;;;;;5085500;28;20197;-76
2022/05/07 07:19:18;;;;;;;3.67;1.67;;;16.80;99.90;;;;;;5090566;28;20192;-76
2022/05/07 07:21:49;;;;;;;4.43;0.73;;;16.70;99.90;;;;;;5082215;28;20287;-77
2022/05/07 07:24:21;;;;;;;1.05;0.60;;;16.70;99.90;;;;;;5080377;28;20652;-76
2022/05/07 07:26:54;;;;;;;1.15;0.55;;;16.70;99.90;;;;;;5074225;28;20258;-77
2022/05/07 07:29:27;;;;;;;0.60;0.50;;;16.60;99.90;;;;;;5086667;28;20664;-76
2022/05/07 07:31:58;;;;;;;1.45;0.77;;;16.60;99.90;;;;;;5084491;28;20216;-76
2022/05/07 07:34:28;;;;;;;1.48;0.75;;;16.50;99.90;;;;;;5091451;28;20246;-76
2022/05/07 07:36:59;;;;;;;2.65;0.80;;;16.50;99.90;;;;;;5085402;28;20235;-76
2022/05/07 07:39:30;;;;;;;1.95;0.50;;;16.50;99.90;;;;;;5094109;28;20189;-76
2022/05/07 07:42:02;;;;;;;1.02;0.77;;;16.40;99.90;;;;;;5093281;28;20184;-76
2022/05/07 07:44:33;;;;;;;1.77;0.80;;;16.30;99.90;;;;;;5073914;28;20694;-76
2022/05/07 07:49:50;;;;;;;1.42;0.90;;;16.20;99.90;;;;;;5087645;28;20196;-75
2022/05/07 07:52:20;;;;;;;3.20;1.38;;;16.20;99.90;;;;;;5077757;28;20224;-76
2022/05/07 07:54:51;;;;;;;1.48;0.90;;;16.10;99.90;;;;;;5085249;28;20220;-76
2022/05/07 07:57:24;;;;;;;2.58;0.98;;;16.00;99.90;;;;;;5091579;28;20672;-76
2022/05/07 07:59:54;;;;;;;0.88;0.85;;;16.00;99.90;;;;;;5077629;28;20274;-76
2022/05/07 08:02:25;;;;;;;1.17;1.08;;;16.00;99.90;;;;;;5073940;28;20201;-77
2022/05/07 08:04:57;;;;;;;2.72;0.70;;;16.00;99.90;;;;;;5084578;28;20283;-76
2022/05/07 08:13:02;;;;;;;2.05;1.23;;;15.90;99.90;;;;;;5050918;28;20225;-76
2022/05/07 08:15:32;;;;;;;1.67;1.00;;;15.90;99.90;;;;;;5088407;28;20207;-76
2022/05/07 08:18:05;;;;;;;1.15;0.90;;;15.80;99.90;;;;;;5093555;28;20195;-77
2022/05/07 08:20:35;;;;;;;2.08;1.10;;;15.80;99.90;;;;;;5092911;28;20203;-76
2022/05/07 08:23:06;;;;;;;2.05;0.98;;;15.70;99.90;;;;;;5078162;28;20721;-76
2022/05/07 08:25:37;;;;;;;2.92;1.20;;;15.70;99.90;;;;;;5090341;28;20203;-76
2022/05/07 08:28:10;;;;;;;2.38;1.40;;;15.60;99.90;;;;;;5087580;28;20200;-77
2022/05/07 08:30:41;;;;;;;1.65;1.15;;;15.60;99.90;;;;;;5090198;28;20196;-76
2022/05/07 08:33:12;;;;;;;2.17;1.17;;;15.50;99.90;;;;;;5080125;28;20193;-77
2022/05/07 08:35:42;;;;;;;2.10;1.02;;;15.50;99.90;;;;;;5074798;28;20196;-77
2022/05/07 08:38:14;;;;;;;1.95;1.17;;;15.40;99.90;;;;;;5074607;28;20197;-77
2022/05/07 08:40:45;;;;;;;4.45;1.20;;;15.40;99.90;;;;;;5082349;28;20203;-77
2022/05/07 08:43:18;;;;;;;2.75;1.23;;;15.40;99.90;;;;;;5073977;28;20205;-76
2022/05/07 08:45:49;;;;;;;2.13;1.05;;;15.30;99.90;;;;;;5078872;28;20212;-77
2022/05/07 08:48:21;;;;;;;3.25;1.20;;;15.30;99.90;;;;;;5084053;28;20197;-76
2022/05/07 08:50:53;;;;;;;1.88;1.00;;;15.40;99.90;;;;;;5074883;28;20246;-76
2022/05/07 08:53:24;;;;;;;1.83;1.20;;;15.30;99.90;;;;;;5074865;28;20616;-76
2022/05/07 08:55:56;;;;;;;1.50;0.90;;;15.20;99.90;;;;;;5089271;28;20207;-75
2022/05/07 08:58:28;;;;;;;2.08;1.10;;;15.20;99.90;;;;;;5090412;28;20274;-77
2022/05/07 09:01:00;;;;;;;3.55;1.20;;;15.20;99.90;;;;;;5081790;28;20725;-76
2022/05/07 09:03:42;;;;;;;2.00;0.95;;;15.10;99.90;;;;;;5086404;28;20275;-76
2022/05/07 09:06:24;;;;;;;1.75;1.00;;;15.10;99.90;;;;;;5082227;28;20219;-76
2022/05/07 09:08:57;;;;;;;1.63;1.10;;;15.10;99.90;;;;;;5080739;28;20239;-76
2022/05/07 09:11:29;;;;;;;1.30;1.00;;;15.00;99.90;;;;;;5083356;28;20207;-76
2022/05/07 09:14:08;;;;;;;2.00;0.93;;;15.00;99.90;;;;;;5089314;28;20200;-76
2022/05/07 09:16:46;;;;;;;2.03;0.98;;;15.00;99.90;;;;;;5083017;28;20204;-76
2022/05/07 09:19:24;;;;;;;3.40;1.20;;;14.90;99.90;;;;;;5091021;28;20196;-77
2022/05/07 09:21:56;;;;;;;1.40;0.90;;;14.90;99.90;;;;;;5095387;28;20236;-76
2022/05/07 09:24:26;;;;;;;1.60;1.15;;;14.90;99.90;;;;;;5086027;28;20241;-77
2022/05/07 09:27:02;;;;;;;1.85;0.93;;;14.90;99.90;;;;;;5084981;28;20204;-76
2022/05/07 09:29:35;;;;;;;2.67;1.00;;;14.80;99.90;;;;;;5090488;28;20610;-76
2022/05/07 09:32:16;;;;;;;1.48;1.05;;;14.80;99.90;;;;;;5090631;28;20626;-77
2022/05/07 09:37:40;;;;;;;1.25;1.00;;;14.70;99.90;;;;;;5082617;28;20250;-77
2022/05/07 09:40:12;;;;;;;1.20;0.90;;;14.70;99.90;;;;;;5076060;28;20710;-76
2022/05/07 09:42:44;;;;;;;1.67;1.00;;;14.70;99.90;;;;;;5080849;28;20589;-77
2022/05/07 09:45:18;;;;;;;0.93;0.80;;;14.70;99.90;;;;;;5090244;28;20201;-76
2022/05/07 09:47:49;;;;;;;3.33;1.00;;;14.60;99.90;;;;;;5084753;28;20197;-77
2022/05/07 09:50:24;;;;;;;1.90;1.20;;;14.60;99.90;;;;;;5093472;28;20253;-76
2022/05/07 09:58:31;;;;;;;3.28;1.38;;;14.50;99.90;;;;;;5096404;28;20239;-77
2022/05/07 10:01:17;;;;;;;2.08;1.15;;;14.50;99.90;;;;;;5096660;28;20203;-77
2022/05/07 10:03:56;;;;;;;4.30;1.48;;;14.50;99.90;;;;;;5080110;28;20726;-77
2022/05/07 10:06:42;;;;;;;2.20;1.25;;;14.40;99.90;;;;;;5083791;28;20268;-76
2022/05/07 10:09:27;;;;;;;1.75;1.00;;;14.40;99.90;;;;;;5096161;28;20184;-77
2022/05/07 10:11:59;;;;;;;2.50;1.38;;;14.40;99.90;;;;;;5095066;28;20216;-77
2022/05/07 10:14:31;;;;;;;2.17;1.30;;;14.30;99.90;;;;;;5093962;28;20203;-77
2022/05/07 10:17:13;;;;;;;1.88;1.20;;;14.30;99.90;;;;;;5090366;28;20189;-76
2022/05/07 10:19:44;;;;;;;2.17;1.23;;;14.30;99.90;;;;;;5095958;28;20548;-76
2022/05/07 10:22:23;;;;;;;1.65;1.17;;;14.30;99.90;;;;;;5094857;28;20199;-76
2022/05/07 10:25:07;;;;;;;1.63;1.02;;;14.20;99.90;;;;;;5081021;28;20188;-76
2022/05/07 10:27:41;;;;;;;1.77;1.23;;;14.20;99.90;;;;;;5076461;28;20201;-76
2022/05/07 10:30:17;;;;;;;2.78;1.10;;;14.20;99.90;;;;;;5091541;28;20196;-76
2022/05/07 10:32:59;;;;;;;2.83;1.55;;;14.20;99.90;;;;;;5091150;28;20215;-77
2022/05/07 10:35:44;;;;;;;2.97;1.25;;;14.10;99.90;;;;;;5081922;28;20204;-76
2022/05/07 10:38:16;;;;;;;2.15;1.20;;;14.00;99.90;;;;;;5095602;28;20628;-76
2022/05/07 10:40:56;;;;;;;2.33;1.30;;;14.10;99.90;;;;;;5086559;28;20196;-76
2022/05/07 10:43:32;;;;;;;3.60;1.50;;;14.00;99.90;;;;;;5081788;28;20605;-76
2022/05/07 10:46:08;;;;;;;1.85;1.30;;;14.00;99.90;;;;;;5091642;28;20269;-76
2022/05/07 10:48:51;;;;;;;3.95;1.30;;;14.00;99.90;;;;;;5090328;28;20207;-75
2022/05/07 10:51:22;;;;;;;1.85;1.30;;;14.00;99.90;;;;;;5091123;28;20188;-76
2022/05/07 10:53:56;;;;;;;2.72;1.52;;;14.00;99.90;;;;;;5085084;28;20224;-76
2022/05/07 10:56:27;;;;;;;1.83;1.30;;;14.00;99.90;;;;;;5089778;28;20280;-75
2022/05/07 10:58:59;;;;;;;3.15;1.65;;;14.00;99.90;;;;;;5085986;28;20224;-76
2022/05/07 11:01:32;;;;;;;1.75;1.40;;;14.00;99.90;;;;;;5094032;28;20674;-76
2022/05/07 11:04:08;;;;;;;2.33;1.27;;;13.90;99.90;;;;;;5093861;28;20203;-77
2022/05/07 11:06:50;;;;;;;2.25;1.30;;;13.90;99.90;;;;;;5083329;28;20265;-76
2022/05/07 11:09:22;;;;;;;3.13;1.50;;;13.70;99.90;;;;;;5093572;28;20199;-76
2022/05/07 11:11:54;;;;;;;2.50;1.55;;;13.60;99.90;;;;;;5086556;28;20212;-76
2022/05/07 11:14:26;;;;;;;1.90;1.38;;;13.50;99.90;;;;;;5090563;28;20241;-76
2022/05/07 11:16:57;;;;;;;1.90;1.60;;;13.50;99.90;;;;;;5074535;28;20531;-77
2022/05/07 11:19:32;;;;;;;4.38;1.95;;;13.50;99.90;;;;;;5087484;28;20192;-77
2022/05/07 11:22:04;;;;;;;2.95;1.80;;;13.50;99.90;;;;;;5088806;28;20211;-77
2022/05/07 11:24:35;;;;;;;2.60;1.65;;;13.50;99.90;;;;;;5092031;28;20204;-77
2022/05/07 11:27:11;;;;;;;3.58;1.73;;;13.60;99.90;;;;;;5089420;28;20200;-77
2022/05/07 11:29:43;;;;;;;2.67;1.70;;;13.60;99.90;;;;;;5094467;28;20707;-77
2022/05/07 11:32:14;;;;;;;3.92;1.90;;;13.60;99.90;;;;;;5087980;28;20219;-76
2022/05/07 11:34:47;;;;;;;2.55;1.70;;;13.60;99.90;;;;;;5094357;28;20639;-76
2022/05/07 11:37:19;;;;;;;3.20;1.88;;;13.60;99.90;;;;;;5089747;28;20204;-76
2022/05/07 11:39:54;;;;;;;2.75;1.60;;;13.60;99.90;;;;;;5093888;28;20193;-76
2022/05/07 11:42:35;;;;;;;3.95;1.60;;;13.50;99.90;;;;;;5083378;28;20200;-76
2022/05/07 11:45:29;;;;;;;3.08;1.50;;;13.40;99.90;;;;;;5077460;28;20265;-76
2022/05/07 11:48:03;;;;;;;2.72;1.52;;;13.30;99.90;;;;;;5088429;28;20670;-76
2022/05/07 11:50:41;;;;;;;2.13;1.30;;;13.30;99.90;;;;;;5077396;28;20239;-77
2022/05/07 11:53:15;;;;;;;2.50;1.63;;;13.30;99.90;;;;;;5077541;28;20240;-77
2022/05/07 11:55:47;;;;;;;3.03;1.70;;;13.30;99.90;;;;;;5082376;28;20565;-76
2022/05/07 11:58:18;;;;;;;3.13;1.63;;;13.20;99.90;;;;;;5088817;28;20231;-76
2022/05/07 12:00:50;;;;;;;3.95;1.77;;;13.10;99.90;;;;;;5092717;28;20290;-76
2022/05/07 12:03:21;;;;;;;3.28;1.70;;;13.10;99.90;;;;;;5094045;28;20249;-76
2022/05/07 12:05:55;;;;;;;3.10;1.63;;;13.00;99.90;;;;;;5093010;28;20189;-76
2022/05/07 12:08:26;;;;;;;2.63;1.50;;;12.90;99.90;;;;;;5078536;28;20236;-76
2022/05/07 12:10:58;;;;;;;2.42;1.50;;;12.90;99.90;;;;;;5093609;28;20242;-76
2022/05/07 12:13:29;;;;;;;3.78;1.60;;;12.90;99.90;;;;;;5075734;28;20308;-76
2022/05/07 12:18:49;;;;;;;2.58;1.60;;;12.70;99.90;;;;;;5080561;28;20210;-76
2022/05/07 12:29:48;;;;;;;3.15;2.13;;;12.70;99.90;;;;;;5091555;28;20675;-76
2022/05/07 12:29:51;;;;;;;4.20;2.25;;;12.60;99.90;;;;;;5086994;28;20252;-75
2022/05/07 12:32:23;;;;;;;4.68;1.77;;;12.50;99.90;;;;;;5086195;28;20209;-75
2022/05/07 12:34:54;;;;;;;2.75;1.70;;;12.50;99.90;;;;;;5075574;28;20721;-75
2022/05/07 12:37:26;;;;;;;5.63;1.77;;;12.50;99.90;;;;;;5089418;28;20208;-76
2022/05/07 12:39:57;;;;;;;4.15;1.92;;;12.50;99.90;;;;;;5074623;28;20718;-76
2022/05/07 12:42:29;;;;;;;3.17;1.67;;;12.60;99.90;;;;;;5080833;28;20678;-76
2022/05/07 12:45:00;;;;;;;4.80;1.92;;;12.50;99.90;;;;;;5079421;28;20649;-76
2022/05/07 12:47:30;;;;;;;4.50;1.83;;;12.60;99.90;;;;;;5074392;28;20231;-76
2022/05/07 12:50:01;;;;;;;3.95;1.80;;;12.60;99.90;;;;;;5089252;28;20207;-76
2022/05/07 12:52:34;;;;;;;5.93;1.75;;;12.70;99.90;;;;;;5083581;28;20258;-75
2022/05/07 12:55:04;;;;;;;2.50;1.58;;;12.70;99.90;;;;;;5084736;28;20196;-75
2022/05/07 12:57:35;;;;;;;4.18;1.80;;;12.80;99.90;;;;;;5090065;28;20201;-75
2022/05/07 13:00:06;;;;;;;2.65;1.73;;;12.90;99.90;;;;;;5076985;28;20185;-75
2022/05/07 13:02:37;;;;;;;5.90;1.95;;;12.90;99.90;;;;;;5087242;28;20283;-75
2022/05/07 13:05:08;;;;;;;4.95;1.88;;;12.90;99.90;;;;;;5096328;28;20200;-75
2022/05/07 13:07:41;;;;;;;3.28;1.83;;;12.90;99.90;;;;;;5095011;28;20646;-75
2022/05/07 13:10:12;;;;;;;4.95;1.75;;;12.90;99.90;;;;;;5084039;28;20251;-76
2022/05/07 13:12:43;;;;;;;2.67;1.70;;;12.80;99.90;;;;;;5090427;28;20219;-75
2022/05/07 13:15:21;;;;;;;5.35;1.90;;;12.90;99.90;;;;;;5078593;28;20618;-75
2022/05/07 13:17:51;;;;;;;2.72;1.70;;;12.90;99.90;;;;;;5085962;28;20246;-75
2022/05/07 13:20:22;;;;;;;2.72;1.80;;;12.80;99.90;;;;;;5083717;28;20652;-76
2022/05/07 13:22:54;;;;;;;3.20;1.65;;;12.80;99.90;;;;;;5080049;28;20230;-76
2022/05/07 13:25:25;;;;;;;2.13;1.70;;;12.80;99.90;;;;;;5078721;28;20197;-76
2022/05/07 13:27:56;;;;;;;4.28;1.60;;;12.80;99.90;;;;;;5076525;28;20189;-75
2022/05/07 13:30:27;;;;;;;2.90;1.67;;;12.70;99.90;;;;;;5077133;28;20288;-75
2022/05/07 13:32:57;;;;;;;7.00;1.83;;;12.70;99.90;;;;;;5085437;28;20213;-76
2022/05/07 13:35:28;;;;;;;3.15;1.55;;;12.60;99.90;;;;;;5083415;28;20196;-75
2022/05/07 13:38:01;;;;;;;3.53;1.58;;;12.60;99.90;;;;;;5096870;28;20242;-75
2022/05/07 13:40:31;;;;;;;4.75;1.92;;;12.60;99.90;;;;;;5096692;28;20223;-75
2022/05/07 13:43:03;;;;;;;4.85;2.20;;;12.50;99.90;;;;;;5095273;28;20192;-76
2022/05/07 13:45:34;;;;;;;3.92;1.98;;;12.40;99.90;;;;;;5081867;28;20201;-77
2022/05/07 13:48:05;;;;;;;3.20;1.90;;;12.40;99.90;;;;;;5087163;28;20280;-76